Flight Track Log - Related Links

Times and Time Zones

All times are in EDT time to prevent confusion due to time zone crossing. See the N924AK flight status page for this flight to view local times or setup timezone preferences in your user account.

Time Position Orientation Groundspeed Altitude Reporting Facility
EDT Latitude Longitude Course Direction KTS MPH feet Rate Location/Type
Fri 10:06:16 AM 44.4892 -73.3364 224° Southwest 216 249 9,200  Level Boston Center
Fri 10:07:16 AM 44.4364 -73.4025 222° Southwest 228 262 10,100 700 Climbing Boston Center
Fri 10:08:16 AM 44.3733 -73.4828 222° Southwest 291 335 10,600 1,700 Climbing Boston Center
Fri 10:09:00 AM 44.1237 -73.6353 226° Southwest  Level FlightAware Approximate
Fri 10:09:16 AM 44.2975 -73.5714 220° Southwest 325 374 13,500  Level Boston Center
Fri 10:10:00 AM 44.0551 -73.7324 224° Southwest  Level FlightAware Approximate
Fri 10:10:16 AM 44.2136 -73.6131 200° South 325 374 15,900  Level Boston Center
Fri 10:11:00 AM 43.9852 -73.8274 224° Southwest  Level FlightAware Approximate
Fri 10:11:16 AM 44.1258 -73.6519 198° South 330 380 17,900  Level Boston Center
Fri 10:12:16 AM 44.0314 -73.6961 199° South 352 405 19,400 1,700 Climbing Boston Center
Fri 10:13:16 AM 43.9353 -73.7375 197° South 359 413 21,300 1,900 Climbing Boston Center
Fri 10:14:16 AM 43.8306 -73.7811 197° South 380 437 23,200 1,727 Climbing Boston Center
Fri 10:15:28 AM 43.7319 -73.8250 198° South 385 443 25,100 1,273 Climbing Boston Center
Fri 10:16:28 AM 43.6147 -73.8767 198° South 391 450 26,000 450 Climbing Boston Center
Fri 10:17:28 AM 43.4972 -73.9283 198° South 415 478 26,000  Level Boston Center
Fri 10:18:28 AM 43.3753 -74.0197 209° Southwest 438 504 26,000  Level Boston Center
Fri 10:19:28 AM 43.2903 -74.1372 225° Southwest 444 511 26,000 550 Level Boston Center
Fri 10:20:28 AM 43.2050 -74.2544 225° Southwest 439 505 27,100 1,500 Climbing Boston Center
Fri 10:21:28 AM 43.1239 -74.3717 227° Southwest 433 498 29,000 1,900 Climbing Boston Center
Fri 10:22:28 AM 43.0450 -74.4772 224° Southwest 421 484 30,900 1,700 Climbing Boston Center
Fri 10:23:28 AM 42.9700 -74.5853 227° Southwest 407 468 32,400 1,250 Climbing Boston Center
Fri 10:24:28 AM 42.8886 -74.6931 224° Southwest 402 463 33,400 800 Climbing Boston Center
Fri 10:25:28 AM 42.8242 -74.7869 227° Southwest 402 463 34,000 300 Climbing Boston Center
Fri 10:26:28 AM 42.7233 -74.9217 224° Southwest 414 476 34,000  Level Boston Center
Fri 10:27:28 AM 42.6375 -75.0339 224° Southwest 422 486 34,000  Level Boston Center
Fri 10:28:28 AM 42.5731 -75.1242 226° Southwest 422 486 34,000 974 Level Boston Center
Fri 10:31:16 AM 42.3353 -75.4411 225° Southwest 416 479 37,700 1,048 Climbing New York Center
Fri 10:32:17 AM 42.2583 -75.5422 224° Southwest 405 466 38,000 149 Climbing New York Center
Fri 10:33:17 AM 42.1747 -75.6564 225° Southwest 413 475 38,000  Level New York Center
Fri 10:34:18 AM 42.0911 -75.7647 224° Southwest 418 481 38,000  Level New York Center
Fri 10:35:16 AM 41.9964 -75.8889 224° Southwest 423 487 38,000  Level New York Center
Fri 10:36:16 AM 41.9103 -76.0019 224° Southwest 434 499 38,000  Level New York Center
Fri 10:37:17 AM 41.8239 -76.1150 224° Southwest 434 499 38,000  Level New York Center
Fri 10:38:17 AM 41.7375 -76.2275 224° Southwest 434 499 38,000  Level New York Center
Fri 10:39:17 AM 41.6556 -76.3347 224° Southwest 434 499 38,000  Level New York Center
Fri 10:40:18 AM 41.5714 -76.4442 224° Southwest 429 494 38,000  Level New York Center
Fri 10:41:16 AM 41.4847 -76.5531 223° Southwest 429 494 38,000 50 Level New York Center
Fri 10:42:17 AM 41.3981 -76.6647 224° Southwest 429 494 38,100 541 Climbing New York Center
Fri 10:43:18 AM 41.3156 -76.7706 224° Southwest 429 494 39,100 893 Climbing New York Center
Fri 10:44:18 AM 41.2333 -76.8711 223° Southwest 423 487 39,900 458 Climbing New York Center
Fri 10:45:16 AM 41.1511 -76.9739 223° Southwest 418 481 40,000 51 Climbing New York Center
Fri 10:46:16 AM 41.0661 -77.0844 224° Southwest 418 481 40,000  Level New York Center
Fri 10:47:17 AM 40.9789 -77.1919 223° Southwest 423 487 40,000  Level New York Center
Fri 10:48:18 AM 40.8917 -77.3017 224° Southwest 423 487 40,000  Level New York Center
Fri 10:49:18 AM 40.8114 -77.3983 222° Southwest 428 493 40,000  Level New York Center
Fri 10:50:16 AM 40.7261 -77.5050 223° Southwest 428 493 40,000  Level New York Center
Fri 10:51:17 AM 40.6386 -77.6114 223° Southwest 428 493 40,000  Level New York Center
Fri 10:53:21 AM 40.4533 -77.8436 224° Southwest 418 481 40,000  Level Cleveland Center
Fri 10:54:21 AM 40.3661 -77.9453 222° Southwest 418 481 40,000  Level Cleveland Center
Fri 10:55:21 AM 40.2850 -78.0464 224° Southwest 413 475 40,000  Level Cleveland Center
Fri 10:56:21 AM 40.2017 -78.1503 224° Southwest 413 475 40,000  Level Cleveland Center
Fri 10:57:21 AM 40.1164 -78.2511 222° Southwest 413 475 40,000  Level Cleveland Center
Fri 10:58:21 AM 40.0350 -78.3514 223° Southwest 413 475 40,000  Level Cleveland Center
Fri 10:59:55 AM 39.9206 -78.4942 224° Southwest 371 427 40,000  Level Washington Center
Fri 11:00:52 AM 39.8306 -78.5906 219° Southwest 390 449 40,000  Level Washington Center
Fri 11:01:53 AM 39.7489 -78.6925 224° Southwest 407 468 40,000  Level Washington Center
Fri 11:02:54 AM 39.6650 -78.7939 223° Southwest 414 476 40,000  Level Washington Center
Fri 11:03:55 AM 39.5789 -78.8953 222° Southwest 414 476 40,000  Level Washington Center
Fri 11:04:55 AM 39.4928 -78.9936 221° Southwest 414 476 40,000  Level Washington Center
Fri 11:05:53 AM 39.4064 -79.0969 223° Southwest 414 476 40,000  Level Washington Center
Fri 11:06:54 AM 39.3200 -79.1972 222° Southwest 414 476 40,000  Level Washington Center
Fri 11:07:55 AM 39.2336 -79.3003 223° Southwest 414 476 40,000  Level Washington Center
Fri 11:08:53 AM 39.1469 -79.4031 223° Southwest 414 476 40,000  Level Washington Center
Fri 11:09:54 AM 39.0606 -79.5000 221° Southwest 414 476 40,000  Level Washington Center
Fri 11:10:55 AM 38.9711 -79.6153 225° Southwest 437 503 40,000  Level Washington Center
Fri 11:11:55 AM 38.8844 -79.7119 221° Southwest 437 503 40,000  Level Washington Center
Fri 11:12:53 AM 38.7956 -79.8136 222° Southwest 430 495 40,000  Level Washington Center
Fri 11:13:54 AM 38.7064 -79.9122 221° Southwest 430 495 40,000  Level Washington Center
Fri 11:14:54 AM 38.6086 -80.0233 222° Southwest 430 495 40,000  Level Washington Center
Fri 11:15:55 AM 38.5194 -80.1242 222° Southwest 430 495 40,000  Level Washington Center
Fri 11:16:55 AM 38.4300 -80.2247 221° Southwest 430 495 40,000  Level Washington Center
Fri 11:18:53 AM 38.2611 -80.4081 220° Southwest 425 489 40,000  Level Indianapolis Center
Fri 11:19:55 AM 38.1725 -80.5058 221° Southwest 421 484 40,000  Level Indianapolis Center
Fri 11:20:56 AM 38.0842 -80.6044 221° Southwest 420 483 40,000  Level Indianapolis Center
Fri 11:21:58 AM 37.9978 -80.7014 222° Southwest 415 478 40,000  Level Indianapolis Center
Fri 11:23:00 AM 37.9083 -80.7994 221° Southwest 421 484 40,000  Level Indianapolis Center
Fri 11:24:02 AM 37.8022 -80.9164 221° Southwest 419 482 40,000  Level Indianapolis Center
Fri 11:25:04 AM 37.7161 -81.0100 221° Southwest 419 482 40,000  Level Indianapolis Center
Fri 11:26:06 AM 37.6314 -81.1047 222° Southwest 419 482 40,000  Level Indianapolis Center
Fri 11:27:08 AM 37.5278 -81.2169 221° Southwest 420 483 40,000  Level Indianapolis Center
Fri 11:28:10 AM 37.4403 -81.3106 220° Southwest 424 488 40,000  Level Indianapolis Center
Fri 11:29:12 AM 37.3525 -81.4061 221° Southwest 429 494 40,000  Level Indianapolis Center
Fri 11:30:14 AM 37.2569 -81.5097 221° Southwest 426 490 40,000  Level Indianapolis Center
Fri 11:31:16 AM 37.1642 -81.6081 220° Southwest 433 498 40,000  Level Indianapolis Center
Fri 11:32:18 AM 37.0667 -81.6986 217° Southwest 435 501 40,000  Level Indianapolis Center
Fri 11:33:20 AM 36.9519 -81.8036 216° Southwest 435 501 40,000  Level Indianapolis Center
Fri 11:34:21 AM 36.8553 -81.8919 216° Southwest 430 495 40,000  Level Indianapolis Center
Fri 11:34:41 AM 36.8219 -81.9203 214° Southwest 442 509 40,000  Level Atlanta Center
Fri 11:35:41 AM 36.7275 -82.0108 218° Southwest 442 509 40,000  Level Atlanta Center
Fri 11:36:41 AM 36.6311 -82.0961 215° Southwest 442 509 40,000 -500 Level Atlanta Center
Fri 11:37:41 AM 36.5344 -82.1836 216° Southwest 437 503 39,000 -950 Descending Atlanta Center
Fri 11:38:41 AM 36.4500 -82.2578 215° Southwest 431 496 38,100 -500 Descending Atlanta Center
Fri 11:39:41 AM 36.3553 -82.3450 217° Southwest 431 496 38,000 -50 Descending Atlanta Center
Fri 11:40:41 AM 36.2583 -82.4294 215° Southwest 431 496 38,000  Level Atlanta Center
Fri 11:41:41 AM 36.1636 -82.5161 216° Southwest 431 496 38,000  Level Atlanta Center
Fri 11:42:41 AM 36.0706 -82.5975 215° Southwest 426 490 38,000 -200 Level Atlanta Center
Fri 11:43:41 AM 35.9756 -82.6839 216° Southwest 426 490 37,600 -950 Descending Atlanta Center
Fri 11:44:41 AM 35.8786 -82.7675 215° Southwest 431 496 36,100 -1,300 Descending Atlanta Center
Fri 11:45:41 AM 35.7814 -82.8561 216° Southwest 431 496 35,000 -550 Descending Atlanta Center
Fri 11:46:41 AM 35.6842 -82.9419 216° Southwest 431 496 35,000 -200 Level Atlanta Center
Fri 11:47:41 AM 35.5828 -83.0300 215° Southwest 442 509 34,600 -750 Descending Atlanta Center
Fri 11:48:41 AM 35.4792 -83.1206 215° Southwest 442 509 33,500 -1,050 Descending Atlanta Center
Fri 11:49:41 AM 35.3817 -83.2058 216° Southwest 436 502 32,500 -1,150 Descending Atlanta Center
Fri 11:50:41 AM 35.2944 -83.2856 217° Southwest 436 502 31,200 -1,550 Descending Atlanta Center
Fri 11:51:41 AM 35.1867 -83.3831 216° Southwest 436 502 29,400 -2,300 Descending Atlanta Center
Fri 11:52:41 AM 35.0950 -83.4575 214° Southwest 436 502 26,600 -2,650 Descending Atlanta Center
Fri 11:53:41 AM 34.9933 -83.5469 216° Southwest 449 517 24,100 -2,250 Descending Atlanta Center
Fri 11:54:41 AM 34.8933 -83.6336 215° Southwest 438 504 22,100 -1,600 Descending Atlanta Center
Fri 11:56:41 AM 34.7039 -83.7911 214° Southwest 423 487 19,300 -1,667 Descending Atlanta Center
Fri 11:57:41 AM 34.6164 -83.8672 216° Southwest 408 470 17,100 -2,700 Descending Atlanta Center
Fri 11:58:41 AM 34.5331 -83.9431 217° Southwest 391 450 13,900 -2,900 Descending Atlanta Center
Fri 11:59:41 AM 34.4433 -84.0061 210° Southwest 379 436 11,300 -2,150 Descending Atlanta Center
Fri 12:00:41 PM 34.3619 -84.0489 203° Southwest 347 399 9,600 -1,450 Descending Atlanta Center
Fri 12:01:41 PM 34.2847 -84.0892 203° Southwest 321 369 8,400 -1,200 Descending Atlanta Center
Fri 12:02:41 PM 34.2158 -84.1067 192° South 290 334 7,200 -1,292 Descending Atlanta Center
Fri 12:04:05 PM 34.1167 -84.1333 193° South 256 295 5,300 -1,292 Descending Atlanta TRACON
Fri 12:05:05 PM 34.0500 -84.1500 192° South 248 285 4,100 -750 Descending Atlanta TRACON
Fri 12:06:05 PM 33.9833 -84.1667 192° South 245 282 3,800 -550 Descending Atlanta TRACON
Fri 12:07:05 PM 33.9167 -84.2000 203° Southwest 253 291 3,000 -500 Descending Atlanta TRACON
Fri 12:08:05 PM 33.8667 -84.2500 220° Southwest 216 249 2,800 -300 Descending Atlanta TRACON
Fri 12:09:05 PM 33.8333 -84.2833 220° Southwest 170 196 2,400 -700 Descending Atlanta TRACON
Fri 12:10:05 PM 33.8500 -84.3167 301° West 160 184 1,400 -1,000 Descending Atlanta TRACON
Fri 12:12:00 PM 33.8667 -84.3000 209° Southwest  Level FlightAware Approximate

Login

Don't have an account? Register now (free) for customized features, flight alerts, and more!